sensor_id;sensor_type;location;lat;lon;timestamp;temperature;humidity
5280;DHT22;2663;53.588;10.010;2023-06-22T00:00:11;21.30;98.80
5280;DHT22;2663;53.588;10.010;2023-06-22T00:02:39;21.90;99.10
5280;DHT22;2663;53.588;10.010;2023-06-22T00:05:05;21.20;98.90
5280;DHT22;2663;53.588;10.010;2023-06-22T00:07:32;21.20;98.90
5280;DHT22;2663;53.588;10.010;2023-06-22T00:09:59;21.20;98.90
5280;DHT22;2663;53.588;10.010;2023-06-22T00:12:26;21.10;99.30
5280;DHT22;2663;53.588;10.010;2023-06-22T00:14:52;20.80;99.20
5280;DHT22;2663;53.588;10.010;2023-06-22T00:17:19;21.20;99.40
5280;DHT22;2663;53.588;10.010;2023-06-22T00:19:47;21.10;99.40
5280;DHT22;2663;53.588;10.010;2023-06-22T00:22:14;21.10;99.40
5280;DHT22;2663;53.588;10.010;2023-06-22T00:24:40;21.10;99.50
5280;DHT22;2663;53.588;10.010;2023-06-22T00:27:08;21.10;99.60
5280;DHT22;2663;53.588;10.010;2023-06-22T00:29:34;21.20;99.80
5280;DHT22;2663;53.588;10.010;2023-06-22T00:32:01;21.10;99.60
5280;DHT22;2663;53.588;10.010;2023-06-22T00:34:28;21.70;99.80
5280;DHT22;2663;53.588;10.010;2023-06-22T00:36:55;21.10;99.60
5280;DHT22;2663;53.588;10.010;2023-06-22T00:39:21;21.00;99.80
5280;DHT22;2663;53.588;10.010;2023-06-22T00:41:48;21.00;99.90
5280;DHT22;2663;53.588;10.010;2023-06-22T00:44:15;21.00;99.80
5280;DHT22;2663;53.588;10.010;2023-06-22T00:46:41;21.00;99.90
5280;DHT22;2663;53.588;10.010;2023-06-22T00:49:08;21.00;99.90
5280;DHT22;2663;53.588;10.010;2023-06-22T00:51:35;21.00;99.90
5280;DHT22;2663;53.588;10.010;2023-06-22T00:54:05;21.00;99.90
5280;DHT22;2663;53.588;10.010;2023-06-22T00:56:32;21.00;99.90
5280;DHT22;2663;53.588;10.010;2023-06-22T00:59:00;21.10;99.90
5280;DHT22;2663;53.588;10.010;2023-06-22T01:01:29;21.00;99.90
5280;DHT22;2663;53.588;10.010;2023-06-22T01:03:56;21.00;99.90
5280;DHT22;2663;53.588;10.010;2023-06-22T01:06:41;21.00;99.90
5280;DHT22;2663;53.588;10.010;2023-06-22T01:09:15;21.00;99.90
5280;DHT22;2663;53.588;10.010;2023-06-22T01:12:06;21.00;99.90
5280;DHT22;2663;53.588;10.010;2023-06-22T01:15:02;20.90;99.90
5280;DHT22;2663;53.588;10.010;2023-06-22T01:17:32;20.90;99.90
5280;DHT22;2663;53.588;10.010;2023-06-22T01:20:00;21.00;99.90
5280;DHT22;2663;53.588;10.010;2023-06-22T01:22:33;20.80;99.90
5280;DHT22;2663;53.588;10.010;2023-06-22T01:25:19;20.70;99.90
5280;DHT22;2663;53.588;10.010;2023-06-22T01:28:18;20.80;99.90
5280;DHT22;2663;53.588;10.010;2023-06-22T01:30:46;20.80;99.90
5280;DHT22;2663;53.588;10.010;2023-06-22T01:33:16;20.80;99.90
5280;DHT22;2663;53.588;10.010;2023-06-22T01:35:43;20.80;99.90
5280;DHT22;2663;53.588;10.010;2023-06-22T01:38:11;21.90;99.90
5280;DHT22;2663;53.588;10.010;2023-06-22T01:40:38;20.70;99.90
5280;DHT22;2663;53.588;10.010;2023-06-22T01:43:05;20.70;99.90
5280;DHT22;2663;53.588;10.010;2023-06-22T01:45:32;20.60;99.90
5280;DHT22;2663;53.588;10.010;2023-06-22T01:48:00;20.50;99.90
5280;DHT22;2663;53.588;10.010;2023-06-22T01:50:27;20.60;99.90
5280;DHT22;2663;53.588;10.010;2023-06-22T01:52:54;20.50;99.90
5280;DHT22;2663;53.588;10.010;2023-06-22T01:55:21;20.50;99.90
5280;DHT22;2663;53.588;10.010;2023-06-22T01:57:48;20.50;99.90
5280;DHT22;2663;53.588;10.010;2023-06-22T02:00:19;20.50;99.90
5280;DHT22;2663;53.588;10.010;2023-06-22T02:03:00;20.50;99.90
5280;DHT22;2663;53.588;10.010;2023-06-22T02:05:34;20.50;99.90
5280;DHT22;2663;53.588;10.010;2023-06-22T02:08:15;20.40;99.90
5280;DHT22;2663;53.588;10.010;2023-06-22T02:10:45;20.40;99.90
5280;DHT22;2663;53.588;10.010;2023-06-22T02:13:13;20.40;99.90
5280;DHT22;2663;53.588;10.010;2023-06-22T02:22:52;20.40;99.90
5280;DHT22;2663;53.588;10.010;2023-06-22T02:25:19;20.40;99.90
5280;DHT22;2663;53.588;10.010;2023-06-22T02:27:46;20.30;99.90
5280;DHT22;2663;53.588;10.010;2023-06-22T02:30:13;20.30;99.90
5280;DHT22;2663;53.588;10.010;2023-06-22T02:32:42;20.30;99.90
5280;DHT22;2663;53.588;10.010;2023-06-22T02:35:12;20.30;99.90
5280;DHT22;2663;53.588;10.010;2023-06-22T02:37:39;20.40;99.90
5280;DHT22;2663;53.588;10.010;2023-06-22T02:40:08;20.30;99.90
5280;DHT22;2663;53.588;10.010;2023-06-22T02:42:36;20.30;99.90
5280;DHT22;2663;53.588;10.010;2023-06-22T02:45:03;20.20;99.90
5280;DHT22;2663;53.588;10.010;2023-06-22T02:47:30;20.20;99.90
5280;DHT22;2663;53.588;10.010;2023-06-22T02:49:57;20.30;99.90
5280;DHT22;2663;53.588;10.010;2023-06-22T02:52:24;20.30;99.90
5280;DHT22;2663;53.588;10.010;2023-06-22T02:54:50;20.20;99.90
5280;DHT22;2663;53.588;10.010;2023-06-22T02:57:17;20.10;99.90
5280;DHT22;2663;53.588;10.010;2023-06-22T02:59:44;20.00;99.90
5280;DHT22;2663;53.588;10.010;2023-06-22T03:02:11;20.00;99.90
5280;DHT22;2663;53.588;10.010;2023-06-22T03:04:37;20.00;99.90
5280;DHT22;2663;53.588;10.010;2023-06-22T03:07:04;20.00;99.90
5280;DHT22;2663;53.588;10.010;2023-06-22T03:09:33;20.00;99.90
5280;DHT22;2663;53.588;10.010;2023-06-22T03:11:59;19.90;99.90
5280;DHT22;2663;53.588;10.010;2023-06-22T03:14:26;19.90;99.90
5280;DHT22;2663;53.588;10.010;2023-06-22T03:16:53;19.90;99.90
5280;DHT22;2663;53.588;10.010;2023-06-22T03:19:20;19.90;99.90
5280;DHT22;2663;53.588;10.010;2023-06-22T03:21:48;19.90;99.90
5280;DHT22;2663;53.588;10.010;2023-06-22T03:24:15;19.90;99.90
5280;DHT22;2663;53.588;10.010;2023-06-22T03:26:41;19.90;99.90
5280;DHT22;2663;53.588;10.010;2023-06-22T03:29:09;19.90;99.90
5280;DHT22;2663;53.588;10.010;2023-06-22T03:31:36;19.90;99.90
5280;DHT22;2663;53.588;10.010;2023-06-22T03:34:03;19.90;99.90
5280;DHT22;2663;53.588;10.010;2023-06-22T03:36:29;19.90;99.90
5280;DHT22;2663;53.588;10.010;2023-06-22T03:38:56;19.80;99.90
5280;DHT22;2663;53.588;10.010;2023-06-22T03:41:23;19.80;99.90
5280;DHT22;2663;53.588;10.010;2023-06-22T03:43:49;19.80;99.90
5280;DHT22;2663;53.588;10.010;2023-06-22T03:46:16;19.80;99.90
5280;DHT22;2663;53.588;10.010;2023-06-22T03:48:43;19.70;99.90
5280;DHT22;2663;53.588;10.010;2023-06-22T03:51:10;19.70;99.90
5280;DHT22;2663;53.588;10.010;2023-06-22T03:53:36;19.60;99.90
5280;DHT22;2663;53.588;10.010;2023-06-22T03:56:03;19.60;99.90
5280;DHT22;2663;53.588;10.010;2023-06-22T03:58:30;19.70;99.90
5280;DHT22;2663;53.588;10.010;2023-06-22T04:00:59;19.70;99.90
5280;DHT22;2663;53.588;10.010;2023-06-22T04:03:26;19.70;99.90
5280;DHT22;2663;53.588;10.010;2023-06-22T04:05:53;19.70;99.90
5280;DHT22;2663;53.588;10.010;2023-06-22T04:08:20;19.80;99.90
5280;DHT22;2663;53.588;10.010;2023-06-22T04:10:47;19.80;99.90
5280;DHT22;2663;53.588;10.010;2023-06-22T04:13:14;19.90;99.90
5280;DHT22;2663;53.588;10.010;2023-06-22T04:15:40;19.90;99.90
5280;DHT22;2663;53.588;10.010;2023-06-22T04:18:07;20.00;99.90
5280;DHT22;2663;53.588;10.010;2023-06-22T04:20:34;20.00;99.90
5280;DHT22;2663;53.588;10.010;2023-06-22T04:23:01;20.00;99.90
5280;DHT22;2663;53.588;10.010;2023-06-22T04:25:28;20.00;99.90
5280;DHT22;2663;53.588;10.010;2023-06-22T04:27:54;20.00;99.90
5280;DHT22;2663;53.588;10.010;2023-06-22T04:30:21;19.90;99.90
5280;DHT22;2663;53.588;10.010;2023-06-22T04:32:48;19.90;99.90
5280;DHT22;2663;53.588;10.010;2023-06-22T04:35:24;19.90;99.90
5280;DHT22;2663;53.588;10.010;2023-06-22T04:37:53;20.00;99.90
5280;DHT22;2663;53.588;10.010;2023-06-22T04:40:22;20.10;99.90
5280;DHT22;2663;53.588;10.010;2023-06-22T04:42:49;20.10;99.90
5280;DHT22;2663;53.588;10.010;2023-06-22T04:45:20;20.10;99.90
5280;DHT22;2663;53.588;10.010;2023-06-22T04:47:47;20.20;99.90
5280;DHT22;2663;53.588;10.010;2023-06-22T04:50:15;20.20;99.90
5280;DHT22;2663;53.588;10.010;2023-06-22T04:52:41;20.30;99.90
5280;DHT22;2663;53.588;10.010;2023-06-22T04:55:08;20.30;99.90
5280;DHT22;2663;53.588;10.010;2023-06-22T04:57:35;20.30;99.90
5280;DHT22;2663;53.588;10.010;2023-06-22T05:00:06;20.30;99.90
5280;DHT22;2663;53.588;10.010;2023-06-22T05:02:40;20.30;99.90
5280;DHT22;2663;53.588;10.010;2023-06-22T05:05:08;20.40;99.90
5280;DHT22;2663;53.588;10.010;2023-06-22T05:07:35;20.40;99.90
5280;DHT22;2663;53.588;10.010;2023-06-22T05:10:02;20.50;99.90
5280;DHT22;2663;53.588;10.010;2023-06-22T05:12:30;20.50;99.90
5280;DHT22;2663;53.588;10.010;2023-06-22T05:14:57;20.50;99.90
5280;DHT22;2663;53.588;10.010;2023-06-22T05:17:24;20.50;99.90
5280;DHT22;2663;53.588;10.010;2023-06-22T05:19:51;20.50;99.90
5280;DHT22;2663;53.588;10.010;2023-06-22T05:22:18;20.50;99.90
5280;DHT22;2663;53.588;10.010;2023-06-22T05:24:45;20.60;99.90
5280;DHT22;2663;53.588;10.010;2023-06-22T05:27:12;20.60;99.90
5280;DHT22;2663;53.588;10.010;2023-06-22T05:29:39;20.90;99.90
5280;DHT22;2663;53.588;10.010;2023-06-22T05:32:06;20.80;99.90
5280;DHT22;2663;53.588;10.010;2023-06-22T05:34:33;20.80;99.90
5280;DHT22;2663;53.588;10.010;2023-06-22T05:37:00;20.90;99.90
5280;DHT22;2663;53.588;10.010;2023-06-22T05:39:26;20.90;99.90
5280;DHT22;2663;53.588;10.010;2023-06-22T05:41:53;20.90;99.90
5280;DHT22;2663;53.588;10.010;2023-06-22T05:44:20;22.20;99.90
5280;DHT22;2663;53.588;10.010;2023-06-22T05:46:47;21.10;99.80
5280;DHT22;2663;53.588;10.010;2023-06-22T05:49:15;21.10;99.70
5280;DHT22;2663;53.588;10.010;2023-06-22T05:51:42;21.10;99.50
5280;DHT22;2663;53.588;10.010;2023-06-22T05:54:09;21.30;99.70
5280;DHT22;2663;53.588;10.010;2023-06-22T05:56:36;21.30;99.30
5280;DHT22;2663;53.588;10.010;2023-06-22T05:59:04;21.40;99.30
5280;DHT22;2663;53.588;10.010;2023-06-22T06:01:30;21.50;99.20
5280;DHT22;2663;53.588;10.010;2023-06-22T06:04:03;21.50;99.60
5280;DHT22;2663;53.588;10.010;2023-06-22T06:06:31;21.60;99.50
5280;DHT22;2663;53.588;10.010;2023-06-22T06:08:57;21.70;99.00
5280;DHT22;2663;53.588;10.010;2023-06-22T06:11:25;21.70;98.60
5280;DHT22;2663;53.588;10.010;2023-06-22T06:13:52;21.70;98.60
5280;DHT22;2663;53.588;10.010;2023-06-22T06:16:19;21.70;97.90
5280;DHT22;2663;53.588;10.010;2023-06-22T06:18:46;21.60;98.10
5280;DHT22;2663;53.588;10.010;2023-06-22T06:21:12;21.80;97.70
5280;DHT22;2663;53.588;10.010;2023-06-22T06:23:39;21.80;97.50
5280;DHT22;2663;53.588;10.010;2023-06-22T06:26:06;21.70;97.80
5280;DHT22;2663;53.588;10.010;2023-06-22T06:28:35;21.80;98.20
5280;DHT22;2663;53.588;10.010;2023-06-22T06:31:01;21.90;98.20
5280;DHT22;2663;53.588;10.010;2023-06-22T06:33:28;22.10;98.30
5280;DHT22;2663;53.588;10.010;2023-06-22T06:35:55;22.20;98.10
5280;DHT22;2663;53.588;10.010;2023-06-22T06:38:22;22.30;98.00
5280;DHT22;2663;53.588;10.010;2023-06-22T06:40:49;22.30;97.80
5280;DHT22;2663;53.588;10.010;2023-06-22T06:43:16;22.40;97.20
5280;DHT22;2663;53.588;10.010;2023-06-22T06:45:43;22.30;97.00
5280;DHT22;2663;53.588;10.010;2023-06-22T06:48:09;22.20;97.30
5280;DHT22;2663;53.588;10.010;2023-06-22T06:50:36;22.20;97.30
5280;DHT22;2663;53.588;10.010;2023-06-22T06:53:03;22.10;97.40
5280;DHT22;2663;53.588;10.010;2023-06-22T06:55:30;22.10;97.50
5280;DHT22;2663;53.588;10.010;2023-06-22T06:57:59;22.20;97.60
5280;DHT22;2663;53.588;10.010;2023-06-22T07:00:26;22.20;97.60
5280;DHT22;2663;53.588;10.010;2023-06-22T07:02:54;22.20;97.50
5280;DHT22;2663;53.588;10.010;2023-06-22T07:05:21;22.10;97.90
5280;DHT22;2663;53.588;10.010;2023-06-22T07:07:47;22.20;98.10
5280;DHT22;2663;53.588;10.010;2023-06-22T07:10:14;22.20;97.90
5280;DHT22;2663;53.588;10.010;2023-06-22T07:12:42;22.30;97.80
5280;DHT22;2663;53.588;10.010;2023-06-22T07:15:09;22.40;97.60
5280;DHT22;2663;53.588;10.010;2023-06-22T07:17:37;22.40;97.70
5280;DHT22;2663;53.588;10.010;2023-06-22T07:20:04;22.60;97.80
5280;DHT22;2663;53.588;10.010;2023-06-22T07:22:35;22.70;98.00
5280;DHT22;2663;53.588;10.010;2023-06-22T07:25:02;22.80;97.90
5280;DHT22;2663;53.588;10.010;2023-06-22T07:27:40;23.00;97.70
5280;DHT22;2663;53.588;10.010;2023-06-22T07:30:10;23.00;97.50
5280;DHT22;2663;53.588;10.010;2023-06-22T07:32:37;23.00;97.60
5280;DHT22;2663;53.588;10.010;2023-06-22T07:35:04;23.00;97.90
5280;DHT22;2663;53.588;10.010;2023-06-22T07:37:31;23.10;98.20
5280;DHT22;2663;53.588;10.010;2023-06-22T07:39:59;23.20;97.90
5280;DHT22;2663;53.588;10.010;2023-06-22T07:42:26;23.30;97.20
5280;DHT22;2663;53.588;10.010;2023-06-22T07:44:54;23.30;96.60
5280;DHT22;2663;53.588;10.010;2023-06-22T07:47:21;23.20;96.60
5280;DHT22;2663;53.588;10.010;2023-06-22T07:49:52;23.20;97.10
5280;DHT22;2663;53.588;10.010;2023-06-22T07:52:21;23.40;97.20
5280;DHT22;2663;53.588;10.010;2023-06-22T07:54:48;23.50;97.00
5280;DHT22;2663;53.588;10.010;2023-06-22T07:57:14;23.60;96.90
5280;DHT22;2663;53.588;10.010;2023-06-22T07:59:41;23.70;96.80
5280;DHT22;2663;53.588;10.010;2023-06-22T08:02:08;24.30;96.70
5280;DHT22;2663;53.588;10.010;2023-06-22T08:04:36;23.80;95.60
5280;DHT22;2663;53.588;10.010;2023-06-22T08:07:03;23.80;96.00
5280;DHT22;2663;53.588;10.010;2023-06-22T08:09:32;23.70;96.00
5280;DHT22;2663;53.588;10.010;2023-06-22T08:11:59;23.70;95.70
5280;DHT22;2663;53.588;10.010;2023-06-22T08:14:27;23.60;96.00
5280;DHT22;2663;53.588;10.010;2023-06-22T08:16:53;23.70;96.50
5280;DHT22;2663;53.588;10.010;2023-06-22T08:19:20;23.80;96.30
5280;DHT22;2663;53.588;10.010;2023-06-22T08:21:47;23.90;96.20
5280;DHT22;2663;53.588;10.010;2023-06-22T08:24:14;24.00;96.40
5280;DHT22;2663;53.588;10.010;2023-06-22T08:26:40;24.20;96.30
5280;DHT22;2663;53.588;10.010;2023-06-22T08:29:07;24.30;95.90
5280;DHT22;2663;53.588;10.010;2023-06-22T08:31:34;24.40;95.60
5280;DHT22;2663;53.588;10.010;2023-06-22T08:34:01;24.50;95.50
5280;DHT22;2663;53.588;10.010;2023-06-22T08:36:27;24.70;95.50
5280;DHT22;2663;53.588;10.010;2023-06-22T08:39:01;24.80;95.10
5280;DHT22;2663;53.588;10.010;2023-06-22T08:41:29;24.90;94.80
5280;DHT22;2663;53.588;10.010;2023-06-22T08:43:56;24.80;94.80
5280;DHT22;2663;53.588;10.010;2023-06-22T08:46:23;24.60;95.20
5280;DHT22;2663;53.588;10.010;2023-06-22T08:48:57;24.80;94.70
5280;DHT22;2663;53.588;10.010;2023-06-22T08:51:27;24.70;94.00
5280;DHT22;2663;53.588;10.010;2023-06-22T08:53:54;24.50;94.60
5280;DHT22;2663;53.588;10.010;2023-06-22T08:56:20;24.50;94.80
5280;DHT22;2663;53.588;10.010;2023-06-22T08:58:47;24.50;95.00
5280;DHT22;2663;53.588;10.010;2023-06-22T09:01:14;24.60;95.10
5280;DHT22;2663;53.588;10.010;2023-06-22T09:03:42;24.60;94.30
5280;DHT22;2663;53.588;10.010;2023-06-22T09:06:09;25.10;94.70
5280;DHT22;2663;53.588;10.010;2023-06-22T09:08:36;24.90;93.70
5280;DHT22;2663;53.588;10.010;2023-06-22T09:11:03;25.10;93.70
5280;DHT22;2663;53.588;10.010;2023-06-22T09:13:30;24.90;94.00
5280;DHT22;2663;53.588;10.010;2023-06-22T09:15:58;24.90;94.60
5280;DHT22;2663;53.588;10.010;2023-06-22T09:18:24;25.00;94.30
5280;DHT22;2663;53.588;10.010;2023-06-22T09:20:51;25.30;94.10
5280;DHT22;2663;53.588;10.010;2023-06-22T09:23:18;25.10;93.60
5280;DHT22;2663;53.588;10.010;2023-06-22T09:25:44;25.40;93.70
5280;DHT22;2663;53.588;10.010;2023-06-22T09:28:14;25.50;93.20
5280;DHT22;2663;53.588;10.010;2023-06-22T09:30:43;25.50;93.30
5280;DHT22;2663;53.588;10.010;2023-06-22T09:33:11;25.40;93.90
5280;DHT22;2663;53.588;10.010;2023-06-22T09:35:38;25.20;94.10
5280;DHT22;2663;53.588;10.010;2023-06-22T09:38:05;25.10;94.10
5280;DHT22;2663;53.588;10.010;2023-06-22T09:40:32;25.20;93.90
5280;DHT22;2663;53.588;10.010;2023-06-22T09:43:02;25.00;93.80
5280;DHT22;2663;53.588;10.010;2023-06-22T09:45:28;25.20;94.10
5280;DHT22;2663;53.588;10.010;2023-06-22T09:47:55;25.50;94.00
5280;DHT22;2663;53.588;10.010;2023-06-22T09:50:22;25.80;93.70
5280;DHT22;2663;53.588;10.010;2023-06-22T09:52:48;26.00;93.20
5280;DHT22;2663;53.588;10.010;2023-06-22T09:55:21;26.20;93.40
5280;DHT22;2663;53.588;10.010;2023-06-22T09:57:48;26.50;92.10
5280;DHT22;2663;53.588;10.010;2023-06-22T10:00:16;26.40;92.30
5280;DHT22;2663;53.588;10.010;2023-06-22T10:02:43;26.50;92.80
5280;DHT22;2663;53.588;10.010;2023-06-22T10:05:11;26.60;92.60
5280;DHT22;2663;53.588;10.010;2023-06-22T10:07:39;27.20;92.70
5280;DHT22;2663;53.588;10.010;2023-06-22T10:10:10;26.70;92.20
5280;DHT22;2663;53.588;10.010;2023-06-22T10:12:44;26.50;92.60
5280;DHT22;2663;53.588;10.010;2023-06-22T10:15:12;27.70;92.70
5280;DHT22;2663;53.588;10.010;2023-06-22T10:17:39;26.30;92.00
5280;DHT22;2663;53.588;10.010;2023-06-22T10:20:07;26.50;92.60
5280;DHT22;2663;53.588;10.010;2023-06-22T10:22:41;26.50;92.30
5280;DHT22;2663;53.588;10.010;2023-06-22T10:25:09;26.70;92.20
5280;DHT22;2663;53.588;10.010;2023-06-22T10:27:36;26.60;91.90
5280;DHT22;2663;53.588;10.010;2023-06-22T10:30:03;26.50;92.00
5280;DHT22;2663;53.588;10.010;2023-06-22T10:32:31;26.50;92.50
5280;DHT22;2663;53.588;10.010;2023-06-22T10:34:58;26.70;92.20
5280;DHT22;2663;53.588;10.010;2023-06-22T10:37:25;26.80;92.60
5280;DHT22;2663;53.588;10.010;2023-06-22T10:39:52;26.70;92.40
5280;DHT22;2663;53.588;10.010;2023-06-22T10:42:18;26.60;92.50
5280;DHT22;2663;53.588;10.010;2023-06-22T10:44:45;26.50;92.20
5280;DHT22;2663;53.588;10.010;2023-06-22T10:47:12;26.60;92.80
5280;DHT22;2663;53.588;10.010;2023-06-22T10:49:39;26.90;92.40
5280;DHT22;2663;53.588;10.010;2023-06-22T10:52:07;27.00;91.90
5280;DHT22;2663;53.588;10.010;2023-06-22T10:54:35;27.00;92.10
5280;DHT22;2663;53.588;10.010;2023-06-22T10:57:02;26.90;91.90
5280;DHT22;2663;53.588;10.010;2023-06-22T10:59:29;26.70;92.40
5280;DHT22;2663;53.588;10.010;2023-06-22T11:01:56;26.70;92.80
5280;DHT22;2663;53.588;10.010;2023-06-22T11:04:24;26.50;92.30
5280;DHT22;2663;53.588;10.010;2023-06-22T11:06:51;26.20;92.50
5280;DHT22;2663;53.588;10.010;2023-06-22T11:09:18;26.30;92.50
5280;DHT22;2663;53.588;10.010;2023-06-22T11:11:55;26.60;92.60
5280;DHT22;2663;53.588;10.010;2023-06-22T11:14:22;27.00;92.20
5280;DHT22;2663;53.588;10.010;2023-06-22T11:16:49;26.90;92.50
5280;DHT22;2663;53.588;10.010;2023-06-22T11:19:17;27.00;92.30
5280;DHT22;2663;53.588;10.010;2023-06-22T11:21:44;26.90;92.30
5280;DHT22;2663;53.588;10.010;2023-06-22T11:24:10;27.20;92.30
5280;DHT22;2663;53.588;10.010;2023-06-22T11:26:37;27.40;92.10
5280;DHT22;2663;53.588;10.010;2023-06-22T11:29:04;27.50;91.70
5280;DHT22;2663;53.588;10.010;2023-06-22T11:31:32;27.40;91.40
5280;DHT22;2663;53.588;10.010;2023-06-22T11:33:59;27.10;91.80
5280;DHT22;2663;53.588;10.010;2023-06-22T11:36:26;26.90;92.30
5280;DHT22;2663;53.588;10.010;2023-06-22T11:38:53;26.70;92.10
5280;DHT22;2663;53.588;10.010;2023-06-22T11:41:20;26.70;92.20
5280;DHT22;2663;53.588;10.010;2023-06-22T11:43:47;26.90;91.70
5280;DHT22;2663;53.588;10.010;2023-06-22T11:46:13;26.90;91.90
5280;DHT22;2663;53.588;10.010;2023-06-22T11:48:40;27.10;92.40
5280;DHT22;2663;53.588;10.010;2023-06-22T11:51:07;27.30;91.90
5280;DHT22;2663;53.588;10.010;2023-06-22T11:53:34;27.50;92.10
5280;DHT22;2663;53.588;10.010;2023-06-22T11:56:01;27.50;91.80
5280;DHT22;2663;53.588;10.010;2023-06-22T11:58:28;27.50;91.60
5280;DHT22;2663;53.588;10.010;2023-06-22T12:00:55;27.60;92.00
5280;DHT22;2663;53.588;10.010;2023-06-22T12:03:22;27.40;91.90
5280;DHT22;2663;53.588;10.010;2023-06-22T12:05:50;27.30;92.10
5280;DHT22;2663;53.588;10.010;2023-06-22T12:08:20;27.40;92.10
5280;DHT22;2663;53.588;10.010;2023-06-22T12:10:47;27.40;92.30
5280;DHT22;2663;53.588;10.010;2023-06-22T12:13:14;27.50;92.30
5280;DHT22;2663;53.588;10.010;2023-06-22T12:15:41;27.40;92.10
5280;DHT22;2663;53.588;10.010;2023-06-22T12:18:08;27.30;92.00
5280;DHT22;2663;53.588;10.010;2023-06-22T12:20:35;27.10;92.20
5280;DHT22;2663;53.588;10.010;2023-06-22T12:23:02;26.90;92.50
5280;DHT22;2663;53.588;10.010;2023-06-22T12:25:28;26.60;92.30
5280;DHT22;2663;53.588;10.010;2023-06-22T12:27:55;26.60;92.60
5280;DHT22;2663;53.588;10.010;2023-06-22T12:30:22;27.80;93.30
5280;DHT22;2663;53.588;10.010;2023-06-22T12:32:49;26.80;92.90
5280;DHT22;2663;53.588;10.010;2023-06-22T12:35:19;26.70;92.30
5280;DHT22;2663;53.588;10.010;2023-06-22T12:37:45;26.90;92.60
5280;DHT22;2663;53.588;10.010;2023-06-22T12:40:12;26.90;92.70
5280;DHT22;2663;53.588;10.010;2023-06-22T12:42:39;27.10;92.70
5280;DHT22;2663;53.588;10.010;2023-06-22T12:45:07;27.20;92.50
5280;DHT22;2663;53.588;10.010;2023-06-22T12:47:33;27.20;92.10
5280;DHT22;2663;53.588;10.010;2023-06-22T12:50:00;27.30;92.50
5280;DHT22;2663;53.588;10.010;2023-06-22T12:52:27;27.30;92.30
5280;DHT22;2663;53.588;10.010;2023-06-22T12:54:54;27.40;92.20
5280;DHT22;2663;53.588;10.010;2023-06-22T12:57:22;27.40;92.40
5280;DHT22;2663;53.588;10.010;2023-06-22T12:59:49;27.40;92.30
5280;DHT22;2663;53.588;10.010;2023-06-22T13:02:15;27.50;92.10
5280;DHT22;2663;53.588;10.010;2023-06-22T13:04:42;27.60;91.70
5280;DHT22;2663;53.588;10.010;2023-06-22T13:07:10;27.60;92.10
5280;DHT22;2663;53.588;10.010;2023-06-22T13:09:49;27.60;92.10
5280;DHT22;2663;53.588;10.010;2023-06-22T13:12:22;27.90;92.20
5280;DHT22;2663;53.588;10.010;2023-06-22T13:14:49;28.20;91.90
5280;DHT22;2663;53.588;10.010;2023-06-22T13:17:16;28.10;91.20
5280;DHT22;2663;53.588;10.010;2023-06-22T13:19:43;28.20;91.40
5280;DHT22;2663;53.588;10.010;2023-06-22T13:22:35;28.00;91.20
5280;DHT22;2663;53.588;10.010;2023-06-22T13:25:09;27.50;91.50
5280;DHT22;2663;53.588;10.010;2023-06-22T13:27:40;27.40;92.10
5280;DHT22;2663;53.588;10.010;2023-06-22T13:30:10;27.40;92.40
5280;DHT22;2663;53.588;10.010;2023-06-22T13:32:40;27.60;92.10
5280;DHT22;2663;53.588;10.010;2023-06-22T13:35:09;27.70;91.90
5280;DHT22;2663;53.588;10.010;2023-06-22T13:37:36;27.80;91.60
5280;DHT22;2663;53.588;10.010;2023-06-22T13:40:05;27.90;91.60
5280;DHT22;2663;53.588;10.010;2023-06-22T13:42:33;27.90;91.50
5280;DHT22;2663;53.588;10.010;2023-06-22T13:45:00;27.50;91.60
5280;DHT22;2663;53.588;10.010;2023-06-22T13:47:26;27.20;92.10
5280;DHT22;2663;53.588;10.010;2023-06-22T13:49:56;27.00;92.10
5280;DHT22;2663;53.588;10.010;2023-06-22T13:52:24;26.90;92.40
5280;DHT22;2663;53.588;10.010;2023-06-22T13:54:51;27.00;92.40
5280;DHT22;2663;53.588;10.010;2023-06-22T13:57:17;27.20;92.30
5280;DHT22;2663;53.588;10.010;2023-06-22T13:59:44;27.10;92.40
5280;DHT22;2663;53.588;10.010;2023-06-22T14:02:11;27.10;92.50
5280;DHT22;2663;53.588;10.010;2023-06-22T14:04:38;27.10;92.30
5280;DHT22;2663;53.588;10.010;2023-06-22T14:07:05;27.40;92.30
5280;DHT22;2663;53.588;10.010;2023-06-22T14:09:31;27.60;92.10
5280;DHT22;2663;53.588;10.010;2023-06-22T14:12:03;27.80;91.60
5280;DHT22;2663;53.588;10.010;2023-06-22T14:14:30;27.70;91.70
5280;DHT22;2663;53.588;10.010;2023-06-22T14:16:57;27.70;91.80
5280;DHT22;2663;53.588;10.010;2023-06-22T14:19:24;27.80;91.60
5280;DHT22;2663;53.588;10.010;2023-06-22T14:21:50;27.50;91.70
5280;DHT22;2663;53.588;10.010;2023-06-22T14:24:17;27.40;92.00
5280;DHT22;2663;53.588;10.010;2023-06-22T14:26:44;26.50;91.60
5280;DHT22;2663;53.588;10.010;2023-06-22T14:29:10;27.10;92.10
5280;DHT22;2663;53.588;10.010;2023-06-22T14:31:37;27.10;92.10
5280;DHT22;2663;53.588;10.010;2023-06-22T14:34:05;26.90;92.10
5280;DHT22;2663;53.588;10.010;2023-06-22T14:36:32;26.90;92.30
5280;DHT22;2663;53.588;10.010;2023-06-22T14:38:59;26.90;92.50
5280;DHT22;2663;53.588;10.010;2023-06-22T14:41:26;26.70;92.50
5280;DHT22;2663;53.588;10.010;2023-06-22T14:43:52;26.60;92.80
5280;DHT22;2663;53.588;10.010;2023-06-22T14:46:19;26.60;93.30
5280;DHT22;2663;53.588;10.010;2023-06-22T14:48:47;26.50;93.20
5280;DHT22;2663;53.588;10.010;2023-06-22T14:51:14;26.40;93.40
5280;DHT22;2663;53.588;10.010;2023-06-22T14:53:46;26.50;93.30
5280;DHT22;2663;53.588;10.010;2023-06-22T14:56:13;26.30;93.10
5280;DHT22;2663;53.588;10.010;2023-06-22T14:58:41;26.40;93.00
5280;DHT22;2663;53.588;10.010;2023-06-22T15:01:13;27.00;93.10
5280;DHT22;2663;53.588;10.010;2023-06-22T15:03:40;26.40;93.30
5280;DHT22;2663;53.588;10.010;2023-06-22T15:06:07;26.50;93.00
5280;DHT22;2663;53.588;10.010;2023-06-22T15:08:36;26.50;93.20
5280;DHT22;2663;53.588;10.010;2023-06-22T15:11:03;26.60;93.30
5280;DHT22;2663;53.588;10.010;2023-06-22T15:13:31;26.60;92.90
5280;DHT22;2663;53.588;10.010;2023-06-22T15:16:02;26.60;93.00
5280;DHT22;2663;53.588;10.010;2023-06-22T15:18:32;26.50;92.90
5280;DHT22;2663;53.588;10.010;2023-06-22T15:21:02;26.50;93.10
5280;DHT22;2663;53.588;10.010;2023-06-22T15:23:30;26.50;93.20
5280;DHT22;2663;53.588;10.010;2023-06-22T15:25:58;26.50;93.00
5280;DHT22;2663;53.588;10.010;2023-06-22T15:28:25;26.40;93.10
5280;DHT22;2663;53.588;10.010;2023-06-22T15:30:51;26.30;93.20
5280;DHT22;2663;53.588;10.010;2023-06-22T15:33:19;26.20;93.30
5280;DHT22;2663;53.588;10.010;2023-06-22T15:35:45;26.20;93.50
5280;DHT22;2663;53.588;10.010;2023-06-22T15:38:12;26.10;93.60
5280;DHT22;2663;53.588;10.010;2023-06-22T15:40:39;26.10;93.60
5280;DHT22;2663;53.588;10.010;2023-06-22T15:43:09;26.00;93.70
5280;DHT22;2663;53.588;10.010;2023-06-22T15:45:36;25.90;93.80
5280;DHT22;2663;53.588;10.010;2023-06-22T15:48:03;25.80;94.00
5280;DHT22;2663;53.588;10.010;2023-06-22T15:50:30;25.80;94.10
5280;DHT22;2663;53.588;10.010;2023-06-22T15:52:57;25.80;94.10
5280;DHT22;2663;53.588;10.010;2023-06-22T15:55:24;25.70;94.20